sensor_id;sensor_type;location;lat;lon;timestamp;noise_LAeq;noise_LA_min;noise_LA_max;noise_LA01;noise_LA95
77361;Laerm;66427;51.798;10.954;2024-03-29T00:01:00;35.13;30.59;43.37;;
77361;Laerm;66427;51.798;10.954;2024-03-29T00:03:27;35.34;30.56;42.72;;
77361;Laerm;66427;51.798;10.954;2024-03-29T00:05:52;33.19;29.43;39.55;;
77361;Laerm;66427;51.798;10.954;2024-03-29T00:08:18;34.17;29.72;43.29;;
77361;Laerm;66427;51.798;10.954;2024-03-29T00:10:47;32.48;29.78;40.21;;
77361;Laerm;66427;51.798;10.954;2024-03-29T00:13:12;34.44;29.63;42.10;;
77361;Laerm;66427;51.798;10.954;2024-03-29T00:15:37;51.42;29.13;68.35;;
77361;Laerm;66427;51.798;10.954;2024-03-29T00:18:03;51.85;30.14;69.64;;
77361;Laerm;66427;51.798;10.954;2024-03-29T00:20:28;32.01;28.48;44.88;;
77361;Laerm;66427;51.798;10.954;2024-03-29T00:22:55;31.60;28.01;36.32;;
77361;Laerm;66427;51.798;10.954;2024-03-29T00:25:20;29.61;27.70;37.19;;
77361;Laerm;66427;51.798;10.954;2024-03-29T00:27:45;29.73;27.28;35.57;;
77361;Laerm;66427;51.798;10.954;2024-03-29T00:30:11;30.19;27.46;37.90;;
77361;Laerm;66427;51.798;10.954;2024-03-29T00:32:36;30.42;27.78;40.69;;
77361;Laerm;66427;51.798;10.954;2024-03-29T00:35:01;29.94;27.73;34.93;;
77361;Laerm;66427;51.798;10.954;2024-03-29T00:37:27;28.83;27.36;34.26;;
77361;Laerm;66427;51.798;10.954;2024-03-29T00:39:52;29.07;27.33;43.19;;
77361;Laerm;66427;51.798;10.954;2024-03-29T00:42:18;28.71;26.79;36.00;;
77361;Laerm;66427;51.798;10.954;2024-03-29T00:44:44;28.66;27.36;36.36;;
77361;Laerm;66427;51.798;10.954;2024-03-29T00:47:10;30.15;27.36;39.39;;
77361;Laerm;66427;51.798;10.954;2024-03-29T00:49:35;30.95;27.17;40.05;;
77361;Laerm;66427;51.798;10.954;2024-03-29T00:52:01;29.35;27.16;40.69;;
77361;Laerm;66427;51.798;10.954;2024-03-29T00:54:26;28.81;27.40;35.60;;
77361;Laerm;66427;51.798;10.954;2024-03-29T00:56:52;28.69;27.34;33.64;;
77361;Laerm;66427;51.798;10.954;2024-03-29T00:59:17;29.19;27.36;32.66;;
77361;Laerm;66427;51.798;10.954;2024-03-29T01:01:43;30.32;27.52;43.49;;
77361;Laerm;66427;51.798;10.954;2024-03-29T01:04:08;29.70;27.88;34.48;;
77361;Laerm;66427;51.798;10.954;2024-03-29T01:06:33;30.80;27.58;40.83;;
77361;Laerm;66427;51.798;10.954;2024-03-29T01:08:59;29.04;27.51;40.11;;
77361;Laerm;66427;51.798;10.954;2024-03-29T01:11:25;48.32;27.69;66.21;;
77361;Laerm;66427;51.798;10.954;2024-03-29T01:13:50;30.39;27.41;48.11;;
77361;Laerm;66427;51.798;10.954;2024-03-29T01:16:15;30.14;27.32;45.88;;
77361;Laerm;66427;51.798;10.954;2024-03-29T01:18:41;28.75;27.08;38.11;;
77361;Laerm;66427;51.798;10.954;2024-03-29T01:21:08;29.09;27.40;31.98;;
77361;Laerm;66427;51.798;10.954;2024-03-29T01:23:34;29.61;27.54;40.12;;
77361;Laerm;66427;51.798;10.954;2024-03-29T01:25:59;30.59;27.31;38.62;;
77361;Laerm;66427;51.798;10.954;2024-03-29T01:28:24;29.04;27.65;35.60;;
77361;Laerm;66427;51.798;10.954;2024-03-29T01:30:53;30.27;27.36;39.67;;
77361;Laerm;66427;51.798;10.954;2024-03-29T01:33:19;29.96;27.33;41.36;;
77361;Laerm;66427;51.798;10.954;2024-03-29T01:35:44;28.92;27.41;39.18;;
77361;Laerm;66427;51.798;10.954;2024-03-29T01:38:19;28.84;27.21;37.49;;
77361;Laerm;66427;51.798;10.954;2024-03-29T01:40:45;28.45;27.13;36.33;;
77361;Laerm;66427;51.798;10.954;2024-03-29T01:43:10;29.33;27.24;44.46;;
77361;Laerm;66427;51.798;10.954;2024-03-29T01:45:37;28.62;27.29;33.63;;
77361;Laerm;66427;51.798;10.954;2024-03-29T01:48:03;28.86;27.46;32.23;;
77361;Laerm;66427;51.798;10.954;2024-03-29T01:50:29;31.31;27.56;41.30;;
77361;Laerm;66427;51.798;10.954;2024-03-29T01:52:54;50.44;27.41;66.92;;
77361;Laerm;66427;51.798;10.954;2024-03-29T01:55:20;29.90;27.36;37.08;;
77361;Laerm;66427;51.798;10.954;2024-03-29T01:57:46;29.47;27.30;35.84;;
77361;Laerm;66427;51.798;10.954;2024-03-29T02:00:11;30.26;27.34;37.87;;
77361;Laerm;66427;51.798;10.954;2024-03-29T02:02:37;30.77;27.75;37.87;;
77361;Laerm;66427;51.798;10.954;2024-03-29T02:05:02;31.86;27.54;44.20;;
77361;Laerm;66427;51.798;10.954;2024-03-29T02:07:29;28.25;27.10;33.90;;
77361;Laerm;66427;51.798;10.954;2024-03-29T02:09:55;31.20;27.28;46.90;;
77361;Laerm;66427;51.798;10.954;2024-03-29T02:12:20;29.00;27.45;34.22;;
77361;Laerm;66427;51.798;10.954;2024-03-29T02:14:45;29.79;28.24;39.87;;
77361;Laerm;66427;51.798;10.954;2024-03-29T02:17:11;29.81;28.16;34.48;;
77361;Laerm;66427;51.798;10.954;2024-03-29T02:19:36;30.61;27.34;43.30;;
77361;Laerm;66427;51.798;10.954;2024-03-29T02:22:01;36.27;27.59;57.55;;
77361;Laerm;66427;51.798;10.954;2024-03-29T02:24:30;37.02;27.61;61.78;;
77361;Laerm;66427;51.798;10.954;2024-03-29T02:26:56;48.61;28.35;74.15;;
77361;Laerm;66427;51.798;10.954;2024-03-29T02:29:21;61.49;30.18;92.96;;
77361;Laerm;66427;51.798;10.954;2024-03-29T02:31:46;49.41;29.58;71.59;;
77361;Laerm;66427;51.798;10.954;2024-03-29T02:34:12;32.29;28.32;47.01;;
77361;Laerm;66427;51.798;10.954;2024-03-29T02:36:37;35.02;27.80;60.87;;
77361;Laerm;66427;51.798;10.954;2024-03-29T02:39:03;33.35;28.03;45.27;;
77361;Laerm;66427;51.798;10.954;2024-03-29T02:41:28;34.16;29.02;50.12;;
77361;Laerm;66427;51.798;10.954;2024-03-29T02:43:55;34.51;28.89;51.39;;
77361;Laerm;66427;51.798;10.954;2024-03-29T02:46:20;33.61;29.46;40.07;;
77361;Laerm;66427;51.798;10.954;2024-03-29T02:48:46;33.72;29.54;40.73;;
77361;Laerm;66427;51.798;10.954;2024-03-29T02:51:11;41.49;31.79;53.63;;
77361;Laerm;66427;51.798;10.954;2024-03-29T02:53:36;35.14;30.82;48.83;;
77361;Laerm;66427;51.798;10.954;2024-03-29T02:56:03;35.77;31.06;41.92;;
77361;Laerm;66427;51.798;10.954;2024-03-29T02:58:28;35.72;30.61;42.10;;
77361;Laerm;66427;51.798;10.954;2024-03-29T03:00:53;35.33;30.47;40.74;;
77361;Laerm;66427;51.798;10.954;2024-03-29T03:03:19;36.31;31.23;49.64;;
77361;Laerm;66427;51.798;10.954;2024-03-29T03:05:44;34.18;29.91;47.59;;
77361;Laerm;66427;51.798;10.954;2024-03-29T03:08:09;33.06;28.95;45.50;;
77361;Laerm;66427;51.798;10.954;2024-03-29T03:10:53;32.38;28.85;39.40;;
77361;Laerm;66427;51.798;10.954;2024-03-29T03:13:21;32.85;29.41;40.30;;
77361;Laerm;66427;51.798;10.954;2024-03-29T03:15:47;32.45;29.06;45.40;;
77361;Laerm;66427;51.798;10.954;2024-03-29T03:18:12;31.23;29.01;39.59;;
77361;Laerm;66427;51.798;10.954;2024-03-29T03:20:37;32.54;29.14;40.38;;
77361;Laerm;66427;51.798;10.954;2024-03-29T03:23:03;33.21;29.78;40.73;;
77361;Laerm;66427;51.798;10.954;2024-03-29T03:25:28;33.50;29.45;47.21;;
77361;Laerm;66427;51.798;10.954;2024-03-29T03:27:54;33.86;30.05;39.01;;
77361;Laerm;66427;51.798;10.954;2024-03-29T03:30:19;34.07;30.38;44.20;;
77361;Laerm;66427;51.798;10.954;2024-03-29T03:32:44;36.09;30.58;44.44;;
77361;Laerm;66427;51.798;10.954;2024-03-29T03:35:10;36.27;31.01;46.33;;
77361;Laerm;66427;51.798;10.954;2024-03-29T03:37:35;34.69;31.11;41.17;;
77361;Laerm;66427;51.798;10.954;2024-03-29T03:40:00;36.84;32.59;46.02;;
77361;Laerm;66427;51.798;10.954;2024-03-29T03:42:27;39.63;34.08;56.84;;
77361;Laerm;66427;51.798;10.954;2024-03-29T03:44:53;38.74;33.43;52.54;;
77361;Laerm;66427;51.798;10.954;2024-03-29T03:47:18;40.64;31.96;54.59;;
77361;Laerm;66427;51.798;10.954;2024-03-29T03:49:43;39.93;32.34;55.12;;
77361;Laerm;66427;51.798;10.954;2024-03-29T03:52:09;39.98;32.08;56.65;;
77361;Laerm;66427;51.798;10.954;2024-03-29T03:54:34;39.32;31.84;58.26;;
77361;Laerm;66427;51.798;10.954;2024-03-29T03:57:00;36.45;30.75;54.58;;
77361;Laerm;66427;51.798;10.954;2024-03-29T03:59:25;35.53;31.34;52.13;;
77361;Laerm;66427;51.798;10.954;2024-03-29T04:01:50;34.53;30.06;47.53;;
77361;Laerm;66427;51.798;10.954;2024-03-29T04:04:19;35.11;30.63;48.22;;
77361;Laerm;66427;51.798;10.954;2024-03-29T04:06:44;33.45;29.63;41.12;;
77361;Laerm;66427;51.798;10.954;2024-03-29T04:09:10;33.25;30.28;41.83;;
77361;Laerm;66427;51.798;10.954;2024-03-29T04:11:35;37.27;30.90;47.38;;
77361;Laerm;66427;51.798;10.954;2024-03-29T04:14:00;36.03;29.76;48.46;;
77361;Laerm;66427;51.798;10.954;2024-03-29T04:16:26;36.36;30.75;48.04;;
77361;Laerm;66427;51.798;10.954;2024-03-29T04:18:51;38.68;30.52;53.34;;
77361;Laerm;66427;51.798;10.954;2024-03-29T04:21:17;39.73;31.73;57.77;;
77361;Laerm;66427;51.798;10.954;2024-03-29T04:23:42;43.22;31.86;65.09;;
77361;Laerm;66427;51.798;10.954;2024-03-29T04:26:07;39.42;30.91;52.06;;
77361;Laerm;66427;51.798;10.954;2024-03-29T04:28:33;48.00;30.20;64.64;;
77361;Laerm;66427;51.798;10.954;2024-03-29T04:30:59;37.46;30.88;47.67;;
77361;Laerm;66427;51.798;10.954;2024-03-29T04:33:24;37.72;30.32;53.23;;
77361;Laerm;66427;51.798;10.954;2024-03-29T04:35:53;40.17;31.39;54.32;;
77361;Laerm;66427;51.798;10.954;2024-03-29T04:38:19;45.60;30.53;62.35;;
77361;Laerm;66427;51.798;10.954;2024-03-29T04:40:45;47.83;31.08;63.52;;
77361;Laerm;66427;51.798;10.954;2024-03-29T04:43:10;37.04;30.54;50.81;;
77361;Laerm;66427;51.798;10.954;2024-03-29T04:45:36;36.16;30.10;52.35;;
77361;Laerm;66427;51.798;10.954;2024-03-29T04:48:01;37.86;30.82;62.04;;
77361;Laerm;66427;51.798;10.954;2024-03-29T04:50:26;35.48;30.94;47.76;;
77361;Laerm;66427;51.798;10.954;2024-03-29T04:52:51;48.41;30.77;64.38;;
77361;Laerm;66427;51.798;10.954;2024-03-29T04:55:17;45.14;30.07;62.24;;
77361;Laerm;66427;51.798;10.954;2024-03-29T04:57:42;46.03;31.75;63.37;;
77361;Laerm;66427;51.798;10.954;2024-03-29T05:00:08;44.95;30.22;63.83;;
77361;Laerm;66427;51.798;10.954;2024-03-29T05:02:33;37.18;30.51;62.87;;
77361;Laerm;66427;51.798;10.954;2024-03-29T05:04:59;35.91;29.90;50.30;;
77361;Laerm;66427;51.798;10.954;2024-03-29T05:07:24;50.01;29.71;66.86;;
77361;Laerm;66427;51.798;10.954;2024-03-29T05:09:49;34.64;29.27;46.70;;
77361;Laerm;66427;51.798;10.954;2024-03-29T05:12:15;35.56;29.02;54.40;;
77361;Laerm;66427;51.798;10.954;2024-03-29T05:14:40;34.20;29.08;53.86;;
77361;Laerm;66427;51.798;10.954;2024-03-29T05:17:05;34.38;30.76;45.10;;
77361;Laerm;66427;51.798;10.954;2024-03-29T05:19:31;34.68;30.56;42.92;;
77361;Laerm;66427;51.798;10.954;2024-03-29T05:21:56;36.18;30.70;47.68;;
77361;Laerm;66427;51.798;10.954;2024-03-29T05:24:21;37.08;30.24;49.87;;
77361;Laerm;66427;51.798;10.954;2024-03-29T05:26:47;47.51;32.46;62.17;;
77361;Laerm;66427;51.798;10.954;2024-03-29T05:29:12;51.54;33.45;67.04;;
77361;Laerm;66427;51.798;10.954;2024-03-29T05:31:38;38.96;31.76;55.03;;
77361;Laerm;66427;51.798;10.954;2024-03-29T05:34:03;47.40;32.50;66.30;;
77361;Laerm;66427;51.798;10.954;2024-03-29T05:36:29;39.18;31.41;50.38;;
77361;Laerm;66427;51.798;10.954;2024-03-29T05:38:55;46.27;32.60;62.49;;
77361;Laerm;66427;51.798;10.954;2024-03-29T05:41:20;39.43;33.87;50.54;;
77361;Laerm;66427;51.798;10.954;2024-03-29T05:43:45;38.84;34.60;48.85;;
77361;Laerm;66427;51.798;10.954;2024-03-29T05:46:11;51.03;30.72;67.66;;
77361;Laerm;66427;51.798;10.954;2024-03-29T05:48:36;49.65;34.02;66.50;;
77361;Laerm;66427;51.798;10.954;2024-03-29T05:51:02;41.94;33.62;68.27;;
77361;Laerm;66427;51.798;10.954;2024-03-29T05:53:28;46.40;33.51;61.12;;
77361;Laerm;66427;51.798;10.954;2024-03-29T05:55:53;39.11;31.75;51.40;;
77361;Laerm;66427;51.798;10.954;2024-03-29T05:58:18;38.03;33.02;50.18;;
77361;Laerm;66427;51.798;10.954;2024-03-29T06:00:45;40.79;34.86;55.90;;
77361;Laerm;66427;51.798;10.954;2024-03-29T06:03:10;49.48;32.49;67.22;;
77361;Laerm;66427;51.798;10.954;2024-03-29T06:05:36;36.49;31.60;44.27;;
77361;Laerm;66427;51.798;10.954;2024-03-29T06:08:01;34.83;31.33;41.66;;
77361;Laerm;66427;51.798;10.954;2024-03-29T06:10:27;36.25;31.61;46.16;;
77361;Laerm;66427;51.798;10.954;2024-03-29T06:12:52;50.39;31.43;65.53;;
77361;Laerm;66427;51.798;10.954;2024-03-29T06:15:17;41.09;32.17;52.58;;
77361;Laerm;66427;51.798;10.954;2024-03-29T06:18:01;35.89;31.34;51.87;;
77361;Laerm;66427;51.798;10.954;2024-03-29T06:20:26;36.26;31.01;50.94;;
77361;Laerm;66427;51.798;10.954;2024-03-29T06:22:52;41.65;31.46;62.03;;
77361;Laerm;66427;51.798;10.954;2024-03-29T06:25:17;35.66;31.57;46.11;;
77361;Laerm;66427;51.798;10.954;2024-03-29T06:27:42;35.17;31.49;46.55;;
77361;Laerm;66427;51.798;10.954;2024-03-29T06:30:12;38.08;32.31;56.93;;
77361;Laerm;66427;51.798;10.954;2024-03-29T06:32:38;39.39;34.29;52.39;;
77361;Laerm;66427;51.798;10.954;2024-03-29T06:35:03;39.10;32.51;56.39;;
77361;Laerm;66427;51.798;10.954;2024-03-29T06:37:29;38.44;32.31;59.02;;
77361;Laerm;66427;51.798;10.954;2024-03-29T06:39:55;51.44;34.14;68.61;;
77361;Laerm;66427;51.798;10.954;2024-03-29T06:42:20;55.50;33.06;70.76;;
77361;Laerm;66427;51.798;10.954;2024-03-29T06:44:45;51.03;32.83;67.88;;
77361;Laerm;66427;51.798;10.954;2024-03-29T06:47:11;38.96;33.57;55.67;;
77361;Laerm;66427;51.798;10.954;2024-03-29T06:49:36;53.91;33.88;71.25;;
77361;Laerm;66427;51.798;10.954;2024-03-29T06:52:01;41.55;35.11;59.68;;
77361;Laerm;66427;51.798;10.954;2024-03-29T06:54:27;47.64;35.43;63.06;;
77361;Laerm;66427;51.798;10.954;2024-03-29T06:56:53;47.92;34.16;63.63;;
77361;Laerm;66427;51.798;10.954;2024-03-29T06:59:18;37.88;33.71;42.86;;
77361;Laerm;66427;51.798;10.954;2024-03-29T07:01:44;38.54;35.81;51.45;;
77361;Laerm;66427;51.798;10.954;2024-03-29T07:04:09;54.13;36.29;71.99;;
77361;Laerm;66427;51.798;10.954;2024-03-29T07:06:35;49.30;39.92;69.82;;
77361;Laerm;66427;51.798;10.954;2024-03-29T07:09:02;54.33;40.88;72.76;;
77361;Laerm;66427;51.798;10.954;2024-03-29T07:11:28;50.14;40.34;65.45;;
77361;Laerm;66427;51.798;10.954;2024-03-29T07:13:54;56.63;38.18;72.99;;
77361;Laerm;66427;51.798;10.954;2024-03-29T07:16:19;52.00;38.13;72.53;;
77361;Laerm;66427;51.798;10.954;2024-03-29T07:18:44;42.87;38.77;57.20;;
77361;Laerm;66427;51.798;10.954;2024-03-29T07:21:10;53.56;38.95;66.88;;
77361;Laerm;66427;51.798;10.954;2024-03-29T07:23:35;43.53;39.57;60.34;;
77361;Laerm;66427;51.798;10.954;2024-03-29T07:26:01;56.18;38.45;70.16;;
77361;Laerm;66427;51.798;10.954;2024-03-29T07:28:28;56.62;38.02;68.95;;
77361;Laerm;66427;51.798;10.954;2024-03-29T07:30:53;60.22;38.66;76.12;;
77361;Laerm;66427;51.798;10.954;2024-03-29T07:33:19;53.53;39.43;70.66;;
77361;Laerm;66427;51.798;10.954;2024-03-29T07:35:46;52.99;38.37;69.75;;
77361;Laerm;66427;51.798;10.954;2024-03-29T07:38:12;54.78;35.75;69.72;;
77361;Laerm;66427;51.798;10.954;2024-03-29T07:40:38;52.41;35.36;70.02;;
77361;Laerm;66427;51.798;10.954;2024-03-29T07:43:04;40.38;35.02;49.51;;
77361;Laerm;66427;51.798;10.954;2024-03-29T07:45:29;40.24;35.60;55.16;;
77361;Laerm;66427;51.798;10.954;2024-03-29T07:47:54;43.48;36.62;62.50;;
77361;Laerm;66427;51.798;10.954;2024-03-29T07:50:20;50.47;37.28;70.15;;
77361;Laerm;66427;51.798;10.954;2024-03-29T07:52:45;55.24;37.91;70.38;;
77361;Laerm;66427;51.798;10.954;2024-03-29T07:55:11;53.59;36.72;70.44;;
77361;Laerm;66427;51.798;10.954;2024-03-29T07:57:36;41.05;37.67;62.01;;
77361;Laerm;66427;51.798;10.954;2024-03-29T08:00:01;52.59;37.92;72.19;;
77361;Laerm;66427;51.798;10.954;2024-03-29T08:02:28;47.58;38.10;65.90;;
77361;Laerm;66427;51.798;10.954;2024-03-29T08:04:53;42.86;36.03;56.13;;
77361;Laerm;66427;51.798;10.954;2024-03-29T08:07:18;48.69;36.45;67.34;;
77361;Laerm;66427;51.798;10.954;2024-03-29T08:09:43;53.58;37.81;70.41;;
77361;Laerm;66427;51.798;10.954;2024-03-29T08:12:09;56.32;38.30;71.12;;
77361;Laerm;66427;51.798;10.954;2024-03-29T08:14:34;54.03;38.65;69.06;;
77361;Laerm;66427;51.798;10.954;2024-03-29T08:16:59;45.06;38.77;57.44;;
77361;Laerm;66427;51.798;10.954;2024-03-29T08:19:29;57.47;37.41;76.02;;
77361;Laerm;66427;51.798;10.954;2024-03-29T08:21:55;53.35;38.64;69.41;;
77361;Laerm;66427;51.798;10.954;2024-03-29T08:24:20;42.70;36.03;61.78;;
77361;Laerm;66427;51.798;10.954;2024-03-29T08:26:46;43.06;36.53;63.52;;
77361;Laerm;66427;51.798;10.954;2024-03-29T08:29:12;53.21;38.38;70.66;;
77361;Laerm;66427;51.798;10.954;2024-03-29T08:31:37;54.56;39.96;67.14;;
77361;Laerm;66427;51.798;10.954;2024-03-29T08:34:02;58.55;38.98;74.84;;
77361;Laerm;66427;51.798;10.954;2024-03-29T08:36:27;50.23;38.32;64.19;;
77361;Laerm;66427;51.798;10.954;2024-03-29T08:38:53;54.06;38.36;71.52;;
77361;Laerm;66427;51.798;10.954;2024-03-29T08:41:18;49.15;38.46;67.62;;
77361;Laerm;66427;51.798;10.954;2024-03-29T08:43:43;46.53;37.88;61.43;;
77361;Laerm;66427;51.798;10.954;2024-03-29T08:46:09;58.10;39.49;69.40;;
77361;Laerm;66427;51.798;10.954;2024-03-29T08:48:34;50.58;39.12;66.10;;
77361;Laerm;66427;51.798;10.954;2024-03-29T08:51:01;43.82;39.27;62.64;;
77361;Laerm;66427;51.798;10.954;2024-03-29T08:53:26;49.78;40.09;62.61;;
77361;Laerm;66427;51.798;10.954;2024-03-29T08:55:52;47.12;40.18;61.61;;
77361;Laerm;66427;51.798;10.954;2024-03-29T08:58:17;58.73;38.17;78.34;;
77361;Laerm;66427;51.798;10.954;2024-03-29T09:00:51;53.28;40.26;68.04;;
77361;Laerm;66427;51.798;10.954;2024-03-29T09:03:17;55.78;39.67;70.53;;
77361;Laerm;66427;51.798;10.954;2024-03-29T09:05:42;53.17;40.38;68.52;;
77361;Laerm;66427;51.798;10.954;2024-03-29T09:08:08;56.52;39.42;70.20;;
77361;Laerm;66427;51.798;10.954;2024-03-29T09:10:33;57.26;38.79;70.82;;
77361;Laerm;66427;51.798;10.954;2024-03-29T09:12:58;49.77;39.46;66.02;;
77361;Laerm;66427;51.798;10.954;2024-03-29T09:15:24;54.13;39.98;75.62;;
77361;Laerm;66427;51.798;10.954;2024-03-29T09:17:49;43.15;39.59;54.03;;
77361;Laerm;66427;51.798;10.954;2024-03-29T09:20:14;56.25;39.29;73.63;;
77361;Laerm;66427;51.798;10.954;2024-03-29T09:22:40;50.97;40.07;66.22;;
77361;Laerm;66427;51.798;10.954;2024-03-29T09:25:06;51.62;41.06;65.63;;
77361;Laerm;66427;51.798;10.954;2024-03-29T09:27:31;53.11;40.05;66.22;;
77361;Laerm;66427;51.798;10.954;2024-03-29T09:30:01;57.32;40.29;77.06;;
77361;Laerm;66427;51.798;10.954;2024-03-29T09:32:27;61.33;41.66;75.66;;
77361;Laerm;66427;51.798;10.954;2024-03-29T09:34:52;53.67;40.14;68.86;;
77361;Laerm;66427;51.798;10.954;2024-03-29T09:37:17;48.70;40.33;61.58;;
77361;Laerm;66427;51.798;10.954;2024-03-29T09:39:45;49.90;40.53;64.34;;
77361;Laerm;66427;51.798;10.954;2024-03-29T09:42:12;49.94;40.25;64.00;;
77361;Laerm;66427;51.798;10.954;2024-03-29T09:44:40;59.66;40.33;77.41;;
77361;Laerm;66427;51.798;10.954;2024-03-29T09:47:08;57.22;40.56;76.67;;
77361;Laerm;66427;51.798;10.954;2024-03-29T09:49:34;44.08;40.05;58.41;;
77361;Laerm;66427;51.798;10.954;2024-03-29T09:51:59;58.41;41.59;68.66;;
77361;Laerm;66427;51.798;10.954;2024-03-29T09:54:28;62.41;42.07;80.54;;
77361;Laerm;66427;51.798;10.954;2024-03-29T09:56:55;50.59;40.60;64.56;;
77361;Laerm;66427;51.798;10.954;2024-03-29T09:59:21;51.14;41.00;62.84;;
77361;Laerm;66427;51.798;10.954;2024-03-29T10:01:47;55.36;41.37;66.24;;
77361;Laerm;66427;51.798;10.954;2024-03-29T10:04:13;51.42;39.69;66.32;;
77361;Laerm;66427;51.798;10.954;2024-03-29T10:06:38;54.38;38.77;71.23;;
77361;Laerm;66427;51.798;10.954;2024-03-29T10:09:04;54.51;38.09;68.16;;
77361;Laerm;66427;51.798;10.954;2024-03-29T10:11:30;54.46;38.46;69.95;;
77361;Laerm;66427;51.798;10.954;2024-03-29T10:13:56;53.96;40.64;67.76;;
77361;Laerm;66427;51.798;10.954;2024-03-29T10:16:21;53.82;38.57;66.35;;
77361;Laerm;66427;51.798;10.954;2024-03-29T10:18:47;54.78;38.57;74.86;;
77361;Laerm;66427;51.798;10.954;2024-03-29T10:21:12;54.36;38.16;67.71;;
77361;Laerm;66427;51.798;10.954;2024-03-29T10:23:38;54.78;37.68;69.89;;
77361;Laerm;66427;51.798;10.954;2024-03-29T10:26:05;45.44;38.53;61.88;;
77361;Laerm;66427;51.798;10.954;2024-03-29T10:28:32;54.18;39.26;67.52;;
77361;Laerm;66427;51.798;10.954;2024-03-29T10:30:58;44.14;39.20;55.79;;
77361;Laerm;66427;51.798;10.954;2024-03-29T10:33:27;56.42;39.94;73.27;;
77361;Laerm;66427;51.798;10.954;2024-03-29T10:35:52;44.11;39.36;56.79;;
77361;Laerm;66427;51.798;10.954;2024-03-29T10:38:20;53.77;38.75;71.48;;
77361;Laerm;66427;51.798;10.954;2024-03-29T10:40:46;53.88;40.72;65.40;;
77361;Laerm;66427;51.798;10.954;2024-03-29T10:43:12;51.30;41.59;65.93;;
77361;Laerm;66427;51.798;10.954;2024-03-29T10:45:38;58.02;40.15;76.60;;
77361;Laerm;66427;51.798;10.954;2024-03-29T10:48:04;52.66;40.55;65.29;;
77361;Laerm;66427;51.798;10.954;2024-03-29T10:50:34;55.24;40.19;69.21;;
77361;Laerm;66427;51.798;10.954;2024-03-29T10:52:59;55.37;41.37;67.04;;
77361;Laerm;66427;51.798;10.954;2024-03-29T10:55:26;51.08;40.29;66.01;;
77361;Laerm;66427;51.798;10.954;2024-03-29T10:57:53;43.68;39.55;57.26;;
77361;Laerm;66427;51.798;10.954;2024-03-29T11:00:18;52.24;39.83;63.19;;
77361;Laerm;66427;51.798;10.954;2024-03-29T11:02:53;54.94;39.56;71.16;;
77361;Laerm;66427;51.798;10.954;2024-03-29T11:05:22;55.81;40.50;70.92;;
77361;Laerm;66427;51.798;10.954;2024-03-29T11:07:48;54.78;40.29;68.70;;
77361;Laerm;66427;51.798;10.954;2024-03-29T11:10:20;47.93;39.57;62.61;;
77361;Laerm;66427;51.798;10.954;2024-03-29T11:15:28;47.73;38.67;61.56;;
77361;Laerm;66427;51.798;10.954;2024-03-29T11:17:55;56.37;39.61;72.38;;
77361;Laerm;66427;51.798;10.954;2024-03-29T11:20:21;54.03;40.45;72.71;;
77361;Laerm;66427;51.798;10.954;2024-03-29T11:22:52;53.32;39.44;67.16;;
77361;Laerm;66427;51.798;10.954;2024-03-29T11:25:19;49.21;39.97;63.88;;
77361;Laerm;66427;51.798;10.954;2024-03-29T11:27:44;47.89;40.08;63.53;;
77361;Laerm;66427;51.798;10.954;2024-03-29T11:30:16;51.40;39.20;65.83;;
77361;Laerm;66427;51.798;10.954;2024-03-29T11:32:41;57.69;39.79;74.51;;
77361;Laerm;66427;51.798;10.954;2024-03-29T11:35:13;50.81;39.38;66.64;;
77361;Laerm;66427;51.798;10.954;2024-03-29T11:37:39;49.94;38.34;62.47;;
77361;Laerm;66427;51.798;10.954;2024-03-29T11:40:05;48.03;37.65;63.67;;
77361;Laerm;66427;51.798;10.954;2024-03-29T11:42:37;52.08;38.86;69.51;;
77361;Laerm;66427;51.798;10.954;2024-03-29T11:45:02;53.18;39.85;75.89;;
77361;Laerm;66427;51.798;10.954;2024-03-29T11:47:28;51.44;37.95;65.26;;
77361;Laerm;66427;51.798;10.954;2024-03-29T11:49:57;41.31;37.99;51.91;;
77361;Laerm;66427;51.798;10.954;2024-03-29T11:52:23;55.97;39.09;70.13;;
77361;Laerm;66427;51.798;10.954;2024-03-29T11:54:49;50.62;39.28;66.17;;
77361;Laerm;66427;51.798;10.954;2024-03-29T11:57:14;53.47;39.61;66.85;;
77361;Laerm;66427;51.798;10.954;2024-03-29T11:59:40;52.70;39.21;73.28;;
77361;Laerm;66427;51.798;10.954;2024-03-29T12:02:05;51.58;38.63;65.05;;
77361;Laerm;66427;51.798;10.954;2024-03-29T12:04:35;51.39;37.96;64.03;;
77361;Laerm;66427;51.798;10.954;2024-03-29T12:07:04;50.87;39.61;64.89;;
77361;Laerm;66427;51.798;10.954;2024-03-29T12:09:29;47.76;38.42;67.00;;
77361;Laerm;66427;51.798;10.954;2024-03-29T12:11:55;52.30;39.15;67.90;;
77361;Laerm;66427;51.798;10.954;2024-03-29T12:14:23;54.34;41.08;79.54;;
77361;Laerm;66427;51.798;10.954;2024-03-29T12:16:49;53.95;42.95;66.31;;
77361;Laerm;66427;51.798;10.954;2024-03-29T12:19:24;48.23;40.03;63.80;;
77361;Laerm;66427;51.798;10.954;2024-03-29T12:21:50;50.04;39.70;65.73;;
77361;Laerm;66427;51.798;10.954;2024-03-29T12:24:16;50.89;39.41;63.95;;
77361;Laerm;66427;51.798;10.954;2024-03-29T12:26:41;51.20;38.24;77.59;;
77361;Laerm;66427;51.798;10.954;2024-03-29T12:29:07;54.15;40.14;69.74;;
77361;Laerm;66427;51.798;10.954;2024-03-29T12:31:32;50.60;39.61;62.60;;
77361;Laerm;66427;51.798;10.954;2024-03-29T12:33:57;50.52;38.56;64.28;;
77361;Laerm;66427;51.798;10.954;2024-03-29T12:36:24;49.58;37.79;64.78;;
77361;Laerm;66427;51.798;10.954;2024-03-29T12:38:53;55.97;37.70;72.92;;
77361;Laerm;66427;51.798;10.954;2024-03-29T12:41:23;46.22;36.86;59.51;;
77361;Laerm;66427;51.798;10.954;2024-03-29T12:43:50;49.19;39.09;64.51;;
77361;Laerm;66427;51.798;10.954;2024-03-29T12:46:15;48.71;39.48;68.96;;
77361;Laerm;66427;51.798;10.954;2024-03-29T12:48:42;49.34;39.60;62.05;;
77361;Laerm;66427;51.798;10.954;2024-03-29T12:51:07;53.61;38.98;73.85;;
77361;Laerm;66427;51.798;10.954;2024-03-29T12:53:32;51.95;37.82;70.59;;
77361;Laerm;66427;51.798;10.954;2024-03-29T12:55:58;51.67;37.29;67.71;;
77361;Laerm;66427;51.798;10.954;2024-03-29T12:58:24;46.73;38.17;60.11;;
77361;Laerm;66427;51.798;10.954;2024-03-29T13:00:52;49.97;36.54;63.98;;
77361;Laerm;66427;51.798;10.954;2024-03-29T13:03:19;51.18;37.96;64.48;;
77361;Laerm;66427;51.798;10.954;2024-03-29T13:05:44;50.97;36.67;66.64;;
77361;Laerm;66427;51.798;10.954;2024-03-29T13:08:10;55.61;40.34;77.39;;
77361;Laerm;66427;51.798;10.954;2024-03-29T13:10:36;50.51;38.42;67.29;;
77361;Laerm;66427;51.798;10.954;2024-03-29T13:13:02;41.99;37.37;55.17;;
77361;Laerm;66427;51.798;10.954;2024-03-29T13:15:27;51.89;38.10;64.20;;
77361;Laerm;66427;51.798;10.954;2024-03-29T13:17:54;49.00;38.72;60.82;;
77361;Laerm;66427;51.798;10.954;2024-03-29T13:20:20;47.93;39.53;67.29;;
77361;Laerm;66427;51.798;10.954;2024-03-29T13:22:46;56.02;40.64;74.31;;
77361;Laerm;66427;51.798;10.954;2024-03-29T13:25:13;50.70;39.14;64.24;;
77361;Laerm;66427;51.798;10.954;2024-03-29T13:27:39;56.23;37.87;72.48;;